createdAt,value
2022-08-24T00:01:49.185Z,81.08
2022-08-24T00:04:16.323Z,81.08
2022-08-24T00:06:44.786Z,81.66
2022-08-24T00:09:12.644Z,81.92
2022-08-24T00:11:39.630Z,80.22
2022-08-24T00:14:06.882Z,79.24
2022-08-24T00:16:35.500Z,79.78
2022-08-24T00:19:02.558Z,79.60
2022-08-24T00:21:29.578Z,79.41
2022-08-24T00:23:56.914Z,81.44
2022-08-24T00:26:29.059Z,81.99
2022-08-24T00:28:58.679Z,83.17
2022-08-24T00:31:26.575Z,82.09
2022-08-24T00:33:54.652Z,84.19
2022-08-24T00:36:22.345Z,83.00
2022-08-24T00:38:49.994Z,85.12
2022-08-24T00:41:18.170Z,86.11
2022-08-24T00:43:55.630Z,86.77
2022-08-24T00:46:59.991Z,86.83
2022-08-24T00:49:33.965Z,85.38
2022-08-24T00:52:24.821Z,84.63
2022-08-24T00:55:07.419Z,84.38
2022-08-24T00:57:40.449Z,86.34
2022-08-24T01:00:22.641Z,86.71
2022-08-24T01:02:55.569Z,86.36
2022-08-24T01:05:22.814Z,85.06
2022-08-24T01:07:50.645Z,89.23
2022-08-24T01:10:25.171Z,89.68
2022-08-24T01:13:00.452Z,88.64
2022-08-24T01:15:30.185Z,89.65
2022-08-24T01:18:16.508Z,88.82
2022-08-24T01:20:50.363Z,89.60
2022-08-24T01:23:40.921Z,87.98
2022-08-24T01:26:13.081Z,86.81
2022-08-24T01:28:46.455Z,86.89
2022-08-24T01:31:14.392Z,86.05
2022-08-24T01:33:41.822Z,86.95
2022-08-24T01:36:36.820Z,86.32
2022-08-24T01:39:18.753Z,87.75
2022-08-24T01:41:46.445Z,88.39
2022-08-24T01:44:14.235Z,90.61
2022-08-24T01:46:47.449Z,91.03
2022-08-24T01:49:15.733Z,91.13
2022-08-24T01:51:46.282Z,92.07
2022-08-24T01:54:14.821Z,92.27
2022-08-24T01:56:42.615Z,93.03
2022-08-24T01:59:12.497Z,90.75
2022-08-24T02:01:47.493Z,89.23
2022-08-24T02:04:17.881Z,89.56
2022-08-24T02:06:47.563Z,88.54
2022-08-24T02:09:16.807Z,89.55
2022-08-24T02:11:44.084Z,90.03
2022-08-24T02:14:14.484Z,90.57
2022-08-24T02:16:42.993Z,90.72
2022-08-24T02:19:10.200Z,91.47
2022-08-24T02:21:38.584Z,91.86
2022-08-24T02:24:07.448Z,91.29
2022-08-24T02:26:34.550Z,91.97
2022-08-24T02:29:03.792Z,93.37
2022-08-24T02:31:32.551Z,90.91
2022-08-24T02:33:59.942Z,91.43
2022-08-24T02:36:27.098Z,90.65
2022-08-24T02:38:58.281Z,91.22
2022-08-24T02:41:26.572Z,91.82
2022-08-24T02:43:55.483Z,92.14
2022-08-24T02:46:29.910Z,92.33
2022-08-24T02:49:11.829Z,91.92
2022-08-24T02:51:46.108Z,92.11
2022-08-24T02:54:18.763Z,94.00
2022-08-24T02:56:48.439Z,94.98
2022-08-24T02:59:17.090Z,94.92
2022-08-24T03:01:44.930Z,94.30
2022-08-24T03:04:13.434Z,94.09
2022-08-24T03:06:40.765Z,93.99
2022-08-24T03:09:08.439Z,94.27
2022-08-24T03:11:35.614Z,94.44
2022-08-24T03:14:03.073Z,95.74
2022-08-24T03:16:31.664Z,97.08
2022-08-24T03:18:59.638Z,98.77
2022-08-24T03:21:28.237Z,99.95
2022-08-24T03:23:56.470Z,100.00
2022-08-24T03:26:23.780Z,100.00
2022-08-24T03:28:52.926Z,100.00
2022-08-24T03:31:21.296Z,100.00
2022-08-24T03:33:50.870Z,100.00
2022-08-24T03:36:18.272Z,100.00
2022-08-24T03:38:45.371Z,99.46
2022-08-24T03:41:12.807Z,98.25
2022-08-24T03:43:47.241Z,97.19
2022-08-24T03:46:22.230Z,97.09
2022-08-24T03:48:54.539Z,95.92
2022-08-24T03:51:28.829Z,96.02
2022-08-24T03:53:58.511Z,96.33
2022-08-24T03:56:28.914Z,97.57
2022-08-24T03:58:57.386Z,99.13
2022-08-24T04:01:27.417Z,100.00
2022-08-24T04:03:55.312Z,100.00
2022-08-24T04:06:27.099Z,100.00
2022-08-24T04:08:54.749Z,100.00
2022-08-24T04:11:26.021Z,100.00
2022-08-24T04:13:57.973Z,100.00
2022-08-24T04:16:26.867Z,100.00
2022-08-24T04:19:03.641Z,100.00
2022-08-24T04:21:35.321Z,100.00
2022-08-24T04:24:07.404Z,100.00
2022-08-24T04:26:44.571Z,100.00
2022-08-24T04:29:17.521Z,100.00
2022-08-24T04:31:51.623Z,100.00
2022-08-24T04:34:18.764Z,100.00
2022-08-24T04:36:46.820Z,100.00
2022-08-24T04:39:14.923Z,100.00
2022-08-24T04:41:50.974Z,100.00
2022-08-24T04:44:21.234Z,100.00
2022-08-24T04:46:48.401Z,100.00
2022-08-24T04:49:15.477Z,100.00
2022-08-24T04:51:43.570Z,100.00
2022-08-24T04:54:10.682Z,100.00
2022-08-24T04:56:38.599Z,99.40
2022-08-24T04:59:06.285Z,99.21
2022-08-24T05:01:34.643Z,99.43
2022-08-24T05:04:05.199Z,100.00
2022-08-24T05:06:32.832Z,98.87
2022-08-24T05:09:01.150Z,97.82
2022-08-24T05:11:29.053Z,95.83
2022-08-24T05:13:58.150Z,90.09
2022-08-24T05:16:26.611Z,84.06
2022-08-24T05:18:55.512Z,79.58
2022-08-24T05:21:24.935Z,74.61
2022-08-24T05:23:54.800Z,67.04
2022-08-24T05:26:26.546Z,63.78
2022-08-24T05:29:00.301Z,63.36
2022-08-24T05:31:33.444Z,57.23
2022-08-24T05:34:05.880Z,57.13
2022-08-24T05:36:38.152Z,52.56
2022-08-24T05:39:13.984Z,56.24
2022-08-24T05:41:46.605Z,51.77
2022-08-24T05:44:20.030Z,53.05
2022-08-24T05:46:47.585Z,50.92
2022-08-24T05:49:14.583Z,48.47
2022-08-24T05:51:42.705Z,45.70
2022-08-24T05:54:13.729Z,47.79
2022-08-24T05:56:51.942Z,49.37
2022-08-24T05:59:19.778Z,46.89
2022-08-24T06:01:48.342Z,44.95
2022-08-24T06:04:15.559Z,42.25
2022-08-24T06:06:42.855Z,42.95
2022-08-24T06:09:12.140Z,43.55
2022-08-24T06:11:41.317Z,43.33
2022-08-24T06:14:15.478Z,43.72
2022-08-24T06:16:52.605Z,44.69
2022-08-24T06:19:20.642Z,44.37
2022-08-24T06:21:51.690Z,44.91
2022-08-24T06:24:19.415Z,43.27
2022-08-24T06:27:05.733Z,43.05
2022-08-24T06:29:34.775Z,40.88
2022-08-24T06:32:22.098Z,39.82
2022-08-24T06:34:49.754Z,37.57
2022-08-24T06:37:18.329Z,37.69
2022-08-24T06:39:45.811Z,37.43
2022-08-24T06:42:12.889Z,37.22
2022-08-24T06:44:44.212Z,38.53
2022-08-24T06:47:19.691Z,37.88
2022-08-24T06:49:49.035Z,36.32
2022-08-24T06:52:16.523Z,35.27
2022-08-24T06:54:43.659Z,36.54
2022-08-24T06:57:10.855Z,35.24
2022-08-24T06:59:40.246Z,33.57
2022-08-24T07:02:09.167Z,33.49
2022-08-24T07:04:38.268Z,36.21
2022-08-24T07:07:23.726Z,35.25
2022-08-24T07:09:50.800Z,33.68
2022-08-24T07:12:17.806Z,32.78
2022-08-24T07:14:44.826Z,31.66
2022-08-24T07:17:11.945Z,32.54
2022-08-24T07:19:39.343Z,32.05
2022-08-24T07:22:08.332Z,32.35
2022-08-24T07:24:35.365Z,30.63
2022-08-24T07:27:02.341Z,30.67
2022-08-24T07:29:52.817Z,29.87
2022-08-24T07:32:16.523Z,32.19
2022-08-24T07:34:45.837Z,33.05
2022-08-24T07:37:13.089Z,33.75
2022-08-24T07:39:43.857Z,33.91
2022-08-24T07:42:15.864Z,33.52
2022-08-24T07:44:46.172Z,33.92
2022-08-24T07:47:38.042Z,32.64
2022-08-24T07:50:02.334Z,32.14
2022-08-24T07:52:29.882Z,32.27
2022-08-24T07:54:56.958Z,32.67
2022-08-24T07:57:25.003Z,31.40
2022-08-24T07:59:52.399Z,29.83
2022-08-24T08:02:19.930Z,27.70
2022-08-24T08:04:50.956Z,30.44
2022-08-24T08:07:19.115Z,28.55
2022-08-24T08:09:52.300Z,30.25
2022-08-24T08:12:19.789Z,29.75
2022-08-24T08:14:56.280Z,26.03
2022-08-24T08:17:23.709Z,27.07
2022-08-24T08:19:51.020Z,24.97
2022-08-24T08:22:37.015Z,28.58
2022-08-24T08:25:31.624Z,24.43
2022-08-24T08:28:12.742Z,26.00
2022-08-24T08:30:50.310Z,25.63
2022-08-24T08:33:18.462Z,27.12
2022-08-24T08:35:46.393Z,26.60
2022-08-24T08:38:13.560Z,28.15
2022-08-24T08:41:07.271Z,27.56
2022-08-24T08:43:44.086Z,26.37
2022-08-24T08:46:49.548Z,26.95
2022-08-24T08:49:47.426Z,27.61
2022-08-24T08:52:38.997Z,28.62
2022-08-24T08:55:41.573Z,29.59
2022-08-24T08:58:22.835Z,30.49
2022-08-24T09:01:10.093Z,31.18
2022-08-24T09:04:22.652Z,31.18
2022-08-24T09:07:24.537Z,29.94
2022-08-24T09:10:54.770Z,29.13
2022-08-24T09:13:51.370Z,27.94
2022-08-24T09:16:52.959Z,28.55
2022-08-24T09:19:31.792Z,27.24
2022-08-24T09:22:15.011Z,27.62
2022-08-24T09:24:46.346Z,27.36
2022-08-24T09:28:19.905Z,26.74
2022-08-24T09:31:09.095Z,28.05
2022-08-24T09:33:45.734Z,28.93
2022-08-24T09:36:20.605Z,29.43
2022-08-24T09:38:58.950Z,26.58
2022-08-24T09:41:57.174Z,27.62
2022-08-24T09:45:01.362Z,28.16
2022-08-24T09:47:57.346Z,27.82
2022-08-24T09:51:11.275Z,27.55
2022-08-24T09:54:08.653Z,26.17
2022-08-24T09:56:59.846Z,27.97
2022-08-24T10:00:01.553Z,27.69
2022-08-24T10:02:51.822Z,28.11
2022-08-24T10:05:50.732Z,26.58
2022-08-24T10:09:06.131Z,25.74
2022-08-24T10:11:51.237Z,27.64
2022-08-24T10:14:56.155Z,27.99
2022-08-24T10:17:46.747Z,26.86
2022-08-24T10:20:26.076Z,24.22
2022-08-24T10:23:27.445Z,24.67
2022-08-24T10:26:22.549Z,25.03
2022-08-24T10:29:08.031Z,25.26
2022-08-24T10:31:48.346Z,27.12
2022-08-24T10:34:40.293Z,24.43
2022-08-24T10:37:19.586Z,24.54
2022-08-24T10:40:32.370Z,25.05
2022-08-24T10:43:34.737Z,25.12
2022-08-24T10:46:18.956Z,23.40
2022-08-24T10:49:32.194Z,21.42
2022-08-24T10:52:39.804Z,24.12
2022-08-24T10:55:21.158Z,24.00
2022-08-24T10:58:05.969Z,24.38
2022-08-24T11:00:33.524Z,24.01
2022-08-24T11:03:14.258Z,22.64
2022-08-24T11:05:55.619Z,23.59
2022-08-24T11:08:26.160Z,24.76
2022-08-24T11:11:10.242Z,22.50
2022-08-24T11:13:49.530Z,23.32
2022-08-24T11:16:45.160Z,22.52
2022-08-24T11:19:15.672Z,23.71
2022-08-24T11:21:51.794Z,24.32
2022-08-24T11:24:19.126Z,24.82
2022-08-24T11:26:55.312Z,22.73
2022-08-24T11:29:31.575Z,23.53
2022-08-24T11:31:59.527Z,22.57
2022-08-24T11:34:36.420Z,22.23
2022-08-24T11:37:05.046Z,23.16
2022-08-24T11:39:37.428Z,24.08
2022-08-24T11:42:27.416Z,25.15
2022-08-24T11:45:20.659Z,25.48
2022-08-24T11:48:05.237Z,25.93
2022-08-24T11:50:38.176Z,24.29
2022-08-24T11:56:28.145Z,25.71
2022-08-24T11:59:20.211Z,26.79
2022-08-24T12:02:03.570Z,25.10
2022-08-24T12:05:02.673Z,25.04
2022-08-24T12:07:54.081Z,25.42
2022-08-24T12:10:46.845Z,26.04
2022-08-24T12:13:17.049Z,25.21
2022-08-24T12:16:32.768Z,25.54
2022-08-24T12:19:33.183Z,26.50
2022-08-24T12:22:06.188Z,27.06
2022-08-24T12:24:56.053Z,26.39
2022-08-24T12:27:30.298Z,26.80
2022-08-24T12:30:13.578Z,26.28
2022-08-24T12:32:53.773Z,27.20
2022-08-24T12:35:30.352Z,28.06
2022-08-24T12:38:26.404Z,27.66
2022-08-24T12:41:17.766Z,27.30
2022-08-24T12:43:53.941Z,27.87
2022-08-24T12:46:23.925Z,28.08
2022-08-24T12:48:59.711Z,28.26
2022-08-24T12:51:54.057Z,28.60
2022-08-24T12:54:48.027Z,29.01
2022-08-24T12:57:25.304Z,29.33
2022-08-24T13:00:09.197Z,29.22
2022-08-24T13:02:47.898Z,29.02
2022-08-24T13:05:19.191Z,28.10
2022-08-24T13:07:49.444Z,26.90
2022-08-24T13:10:45.725Z,27.35
2022-08-24T13:13:23.268Z,28.35
2022-08-24T13:15:55.038Z,28.65
2022-08-24T13:18:22.420Z,28.56
2022-08-24T13:20:51.350Z,28.34
2022-08-24T13:23:24.365Z,29.40
2022-08-24T13:25:55.986Z,30.04
2022-08-24T13:28:23.323Z,29.74
2022-08-24T13:31:26.331Z,29.78
2022-08-24T13:34:00.527Z,30.82
2022-08-24T13:36:44.977Z,31.85
2022-08-24T13:39:32.646Z,32.56
2022-08-24T13:42:10.736Z,32.67
2022-08-24T13:44:50.354Z,31.48
2022-08-24T13:47:23.802Z,31.57
2022-08-24T13:50:03.376Z,31.22
2022-08-24T13:53:09.339Z,31.63
2022-08-24T13:55:46.379Z,31.68
2022-08-24T13:58:43.296Z,32.32
2022-08-24T14:01:26.640Z,32.78
2022-08-24T14:04:25.909Z,33.71
2022-08-24T14:07:17.217Z,33.34
2022-08-24T14:09:53.373Z,33.12
2022-08-24T14:12:32.397Z,32.95
2022-08-24T14:15:29.152Z,33.87
2022-08-24T14:18:11.320Z,32.33
2022-08-24T14:21:03.304Z,33.02
2022-08-24T14:23:57.123Z,31.77
2022-08-24T14:26:40.604Z,31.40
2022-08-24T14:29:20.394Z,32.00
2022-08-24T14:32:08.473Z,31.81
2022-08-24T14:34:48.665Z,32.44
2022-08-24T14:37:22.486Z,32.99
2022-08-24T14:40:02.609Z,32.58
2022-08-24T14:42:41.208Z,32.84
2022-08-24T14:45:23.794Z,33.17
2022-08-24T14:48:23.734Z,33.37
2022-08-24T14:51:29.804Z,33.65
2022-08-24T14:54:03.665Z,34.42
2022-08-24T14:56:50.755Z,33.69
2022-08-24T14:59:32.117Z,34.22
2022-08-24T15:02:29.824Z,34.27
2022-08-24T15:05:23.853Z,34.70
2022-08-24T15:07:57.830Z,34.88
2022-08-24T15:10:47.916Z,35.23
2022-08-24T15:13:56.509Z,35.31
2022-08-24T15:16:38.778Z,35.34
2022-08-24T15:19:44.969Z,36.00
2022-08-24T15:22:27.386Z,35.56
2022-08-24T15:25:05.321Z,36.44
2022-08-24T15:27:55.733Z,36.18
2022-08-24T15:30:32.625Z,36.90
2022-08-24T15:33:19.559Z,37.38
2022-08-24T15:35:50.543Z,37.31
2022-08-24T15:38:30.942Z,37.24
2022-08-24T15:41:28.679Z,37.36
2022-08-24T15:44:01.418Z,38.30
2022-08-24T15:46:45.806Z,38.43
2022-08-24T15:49:34.972Z,38.68
2022-08-24T15:52:08.315Z,38.09
2022-08-24T15:54:41.187Z,37.79
2022-08-24T15:57:31.911Z,37.72
2022-08-24T16:00:38.216Z,37.48
2022-08-24T16:03:30.683Z,37.17
2022-08-24T16:06:31.817Z,38.13
2022-08-24T16:09:01.249Z,37.96
2022-08-24T16:11:34.269Z,38.22
2022-08-24T16:14:02.448Z,38.21
2022-08-24T16:16:35.409Z,38.37
2022-08-24T16:19:08.321Z,38.83
2022-08-24T16:21:55.006Z,38.37
2022-08-24T16:24:27.466Z,38.38
2022-08-24T16:27:11.567Z,38.26
2022-08-24T16:29:39.092Z,38.20
2022-08-24T16:32:10.619Z,38.39
2022-08-24T16:34:51.148Z,38.30
2022-08-24T16:37:20.578Z,38.53
2022-08-24T16:39:48.959Z,38.97
2022-08-24T16:42:25.461Z,39.44
2022-08-24T16:44:53.090Z,39.94
2022-08-24T16:47:21.182Z,40.10
2022-08-24T16:49:49.510Z,40.54
2022-08-24T16:52:17.585Z,40.53
2022-08-24T16:54:45.621Z,40.37
2022-08-24T16:57:16.380Z,40.62
2022-08-24T16:59:45.821Z,40.99
2022-08-24T17:02:14.397Z,41.30
2022-08-24T17:04:42.712Z,41.51
2022-08-24T17:07:13.926Z,41.17
2022-08-24T17:09:44.217Z,41.26
2022-08-24T17:12:11.628Z,41.09
2022-08-24T17:14:39.545Z,41.31
2022-08-24T17:17:12.260Z,41.87
2022-08-24T17:19:39.887Z,41.40
2022-08-24T17:22:16.040Z,41.71
2022-08-24T17:24:44.309Z,41.75
2022-08-24T17:27:12.256Z,41.79
2022-08-24T17:29:40.150Z,42.09
2022-08-24T17:32:07.734Z,42.41
2022-08-24T17:34:35.108Z,42.92
2022-08-24T17:37:02.719Z,43.30
2022-08-24T17:39:30.580Z,43.74
2022-08-24T17:41:58.714Z,44.29
2022-08-24T17:44:28.648Z,44.15
2022-08-24T17:46:59.332Z,43.82
2022-08-24T17:49:28.326Z,43.93
2022-08-24T17:51:56.012Z,44.56
2022-08-24T17:54:23.908Z,44.79
2022-08-24T17:56:51.793Z,45.32
2022-08-24T17:59:30.725Z,45.50
2022-08-24T18:02:07.762Z,45.69
2022-08-24T18:04:36.499Z,45.88
2022-08-24T18:07:12.051Z,46.09
2022-08-24T18:09:50.177Z,46.28
2022-08-24T18:12:20.588Z,46.66
2022-08-24T18:14:48.421Z,46.96
2022-08-24T18:17:22.879Z,47.70
2022-08-24T18:19:52.023Z,47.76
2022-08-24T18:22:19.543Z,48.13
2022-08-24T18:24:46.990Z,48.38
2022-08-24T18:27:26.936Z,48.85
2022-08-24T18:30:00.289Z,49.78
2022-08-24T18:32:31.185Z,49.81
2022-08-24T18:34:59.767Z,50.46
2022-08-24T18:37:27.112Z,51.25
2022-08-24T18:39:54.497Z,51.00
2022-08-24T18:42:22.554Z,51.83
2022-08-24T18:44:49.935Z,52.19
2022-08-24T18:47:17.398Z,52.89
2022-08-24T18:49:44.810Z,53.27
2022-08-24T18:52:14.981Z,53.88
2022-08-24T18:54:44.721Z,54.43
2022-08-24T18:57:12.118Z,55.18
2022-08-24T18:59:40.960Z,55.00
2022-08-24T19:02:35.718Z,55.60
2022-08-24T19:05:13.070Z,56.61
2022-08-24T19:07:45.744Z,57.02
2022-08-24T19:10:16.157Z,57.27
2022-08-24T19:12:46.819Z,57.54
2022-08-24T19:15:35.091Z,57.81
2022-08-24T19:18:05.543Z,57.91
2022-08-24T19:20:34.444Z,58.28
2022-08-24T19:23:08.861Z,58.69
2022-08-24T19:25:38.506Z,59.38
2022-08-24T19:28:06.630Z,59.80
2022-08-24T19:30:34.135Z,60.00
2022-08-24T19:33:02.335Z,60.03
2022-08-24T19:35:31.719Z,60.37
2022-08-24T19:37:59.155Z,60.81
2022-08-24T19:40:26.609Z,60.73
2022-08-24T19:42:55.065Z,60.70
2022-08-24T19:45:45.315Z,60.83
2022-08-24T19:48:13.461Z,61.03
2022-08-24T19:50:41.365Z,61.73
2022-08-24T19:53:10.320Z,61.66
2022-08-24T19:55:37.942Z,62.21
2022-08-24T19:58:40.392Z,62.07
2022-08-24T20:01:13.809Z,61.41
2022-08-24T20:03:41.339Z,61.71
2022-08-24T20:06:08.897Z,61.79
2022-08-24T20:08:36.288Z,61.37
2022-08-24T20:11:04.291Z,61.05
2022-08-24T20:13:31.684Z,61.14
2022-08-24T20:15:59.230Z,60.48
2022-08-24T20:18:32.191Z,61.05
2022-08-24T20:21:00.236Z,61.09
2022-08-24T20:23:29.348Z,61.76
2022-08-24T20:25:58.021Z,62.18
2022-08-24T20:28:37.953Z,62.05
2022-08-24T20:31:06.288Z,62.36
2022-08-24T20:33:33.762Z,62.90
2022-08-24T20:36:01.185Z,63.48
2022-08-24T20:38:29.406Z,63.26
2022-08-24T20:41:00.302Z,64.00
2022-08-24T20:43:28.818Z,63.83
2022-08-24T20:45:56.626Z,64.38
2022-08-24T20:48:30.321Z,64.24
2022-08-24T20:50:57.947Z,64.55
2022-08-24T20:53:26.729Z,65.14
2022-08-24T20:55:56.515Z,65.93
2022-08-24T20:58:24.348Z,67.04
2022-08-24T21:00:52.053Z,67.61
2022-08-24T21:03:19.903Z,68.76
2022-08-24T21:05:51.214Z,67.14
2022-08-24T21:08:18.678Z,69.08
2022-08-24T21:10:46.178Z,69.00
2022-08-24T21:13:13.988Z,70.09
2022-08-24T21:15:41.662Z,70.53
2022-08-24T21:18:10.882Z,69.88
2022-08-24T21:20:44.610Z,69.91
2022-08-24T21:23:28.209Z,70.67
2022-08-24T21:25:55.894Z,71.41
2022-08-24T21:28:23.878Z,71.95
2022-08-24T21:30:51.377Z,72.53
2022-08-24T21:33:37.335Z,72.45
2022-08-24T21:36:05.425Z,72.72
2022-08-24T21:38:35.566Z,73.12
2022-08-24T21:41:03.649Z,73.58
2022-08-24T21:43:32.373Z,73.97
2022-08-24T21:46:00.751Z,74.54
2022-08-24T21:48:27.801Z,74.69
2022-08-24T21:50:54.889Z,74.45
2022-08-24T21:53:21.936Z,75.30
2022-08-24T21:55:55.993Z,75.11
2022-08-24T21:58:24.068Z,74.61
2022-08-24T22:00:51.772Z,74.68
2022-08-24T22:03:19.600Z,74.11
2022-08-24T22:05:46.613Z,73.54
2022-08-24T22:08:13.612Z,73.71
2022-08-24T22:10:40.631Z,73.10
2022-08-24T22:13:08.092Z,73.05
2022-08-24T22:15:36.113Z,72.59
2022-08-24T22:18:03.285Z,73.73
2022-08-24T22:20:30.363Z,73.86
2022-08-24T22:22:58.469Z,73.93
2022-08-24T22:25:25.933Z,74.37
2022-08-24T22:27:53.025Z,74.85
2022-08-24T22:30:20.178Z,75.70
2022-08-24T22:32:47.192Z,76.59
2022-08-24T22:35:14.418Z,77.51
2022-08-24T22:37:41.905Z,77.32
2022-08-24T22:40:12.594Z,77.83
2022-08-24T22:42:40.734Z,77.70
2022-08-24T22:45:09.800Z,77.59
2022-08-24T22:47:37.302Z,77.79
2022-08-24T22:50:06.262Z,78.92
2022-08-24T22:52:33.629Z,78.20
2022-08-24T22:55:00.662Z,77.93
2022-08-24T22:57:28.145Z,78.38
2022-08-24T22:59:57.739Z,78.53
2022-08-24T23:02:25.200Z,78.59
2022-08-24T23:04:53.704Z,79.05
2022-08-24T23:07:21.398Z,78.94
2022-08-24T23:09:48.557Z,78.63
2022-08-24T23:12:22.280Z,78.95
2022-08-24T23:14:52.025Z,78.88
2022-08-24T23:17:20.589Z,78.52
2022-08-24T23:20:00.706Z,78.41
2022-08-24T23:22:38.692Z,78.74
2022-08-24T23:25:12.018Z,78.66
2022-08-24T23:27:39.702Z,77.14
2022-08-24T23:30:13.015Z,77.28
2022-08-24T23:32:40.936Z,76.21
2022-08-24T23:35:08.918Z,76.10
2022-08-24T23:37:35.971Z,76.55
2022-08-24T23:40:04.549Z,77.19
2022-08-24T23:42:31.681Z,77.13
2022-08-24T23:44:58.678Z,77.97
2022-08-24T23:47:26.983Z,78.93
2022-08-24T23:49:55.498Z,78.12
2022-08-24T23:52:28.545Z,79.43
2022-08-24T23:55:20.586Z,79.12
2022-08-24T23:57:47.733Z,80.35
